sensor_id;sensor_type;location;lat;lon;timestamp;P1;durP1;ratioP1;P2;durP2;ratioP2
60851;SDS011;48553;50.766;2.900;2023-04-25T00:00:41;13.13;;;6.50;;
60851;SDS011;48553;50.766;2.900;2023-04-25T00:03:41;13.88;;;6.60;;
60851;SDS011;48553;50.766;2.900;2023-04-25T00:06:41;13.55;;;6.40;;
60851;SDS011;48553;50.766;2.900;2023-04-25T00:09:42;14.55;;;6.65;;
60851;SDS011;48553;50.766;2.900;2023-04-25T00:12:42;13.90;;;6.68;;
60851;SDS011;48553;50.766;2.900;2023-04-25T00:15:43;15.40;;;6.43;;
60851;SDS011;48553;50.766;2.900;2023-04-25T00:18:44;15.95;;;6.70;;
60851;SDS011;48553;50.766;2.900;2023-04-25T00:21:46;15.98;;;6.47;;
60851;SDS011;48553;50.766;2.900;2023-04-25T00:24:47;12.02;;;6.18;;
60851;SDS011;48553;50.766;2.900;2023-04-25T00:27:47;11.20;;;6.30;;
60851;SDS011;48553;50.766;2.900;2023-04-25T00:30:48;12.10;;;6.03;;
60851;SDS011;48553;50.766;2.900;2023-04-25T00:33:48;12.20;;;6.28;;
60851;SDS011;48553;50.766;2.900;2023-04-25T00:36:49;12.57;;;5.78;;
60851;SDS011;48553;50.766;2.900;2023-04-25T00:39:50;11.95;;;5.85;;
60851;SDS011;48553;50.766;2.900;2023-04-25T00:42:51;13.80;;;6.53;;
60851;SDS011;48553;50.766;2.900;2023-04-25T00:45:52;16.85;;;6.43;;
60851;SDS011;48553;50.766;2.900;2023-04-25T00:48:53;14.52;;;5.85;;
60851;SDS011;48553;50.766;2.900;2023-04-25T00:51:53;12.23;;;5.90;;
60851;SDS011;48553;50.766;2.900;2023-04-25T00:54:54;14.25;;;6.15;;
60851;SDS011;48553;50.766;2.900;2023-04-25T00:57:54;14.35;;;6.00;;
60851;SDS011;48553;50.766;2.900;2023-04-25T01:00:55;13.98;;;5.93;;
60851;SDS011;48553;50.766;2.900;2023-04-25T01:03:56;14.40;;;6.00;;
60851;SDS011;48553;50.766;2.900;2023-04-25T01:06:58;14.40;;;5.63;;
60851;SDS011;48553;50.766;2.900;2023-04-25T01:09:59;18.38;;;5.57;;
60851;SDS011;48553;50.766;2.900;2023-04-25T01:12:59;12.90;;;4.95;;
60851;SDS011;48553;50.766;2.900;2023-04-25T01:16:00;18.38;;;5.13;;
60851;SDS011;48553;50.766;2.900;2023-04-25T01:19:01;11.40;;;4.43;;
60851;SDS011;48553;50.766;2.900;2023-04-25T01:22:13;16.15;;;4.50;;
60851;SDS011;48553;50.766;2.900;2023-04-25T01:25:14;12.20;;;4.60;;
60851;SDS011;48553;50.766;2.900;2023-04-25T01:28:17;12.70;;;4.35;;
60851;SDS011;48553;50.766;2.900;2023-04-25T01:31:17;15.45;;;4.35;;
60851;SDS011;48553;50.766;2.900;2023-04-25T01:34:19;16.35;;;4.30;;
60851;SDS011;48553;50.766;2.900;2023-04-25T01:37:19;12.77;;;4.15;;
60851;SDS011;48553;50.766;2.900;2023-04-25T01:40:20;13.15;;;3.53;;
60851;SDS011;48553;50.766;2.900;2023-04-25T01:43:22;9.43;;;3.55;;
60851;SDS011;48553;50.766;2.900;2023-04-25T01:46:23;10.57;;;3.63;;
60851;SDS011;48553;50.766;2.900;2023-04-25T01:49:24;11.85;;;3.70;;
60851;SDS011;48553;50.766;2.900;2023-04-25T01:52:24;13.57;;;4.18;;
60851;SDS011;48553;50.766;2.900;2023-04-25T01:55:24;13.80;;;4.10;;
60851;SDS011;48553;50.766;2.900;2023-04-25T01:58:25;12.18;;;3.85;;
60851;SDS011;48553;50.766;2.900;2023-04-25T02:01:25;11.57;;;3.83;;
60851;SDS011;48553;50.766;2.900;2023-04-25T02:04:26;12.88;;;3.75;;
60851;SDS011;48553;50.766;2.900;2023-04-25T02:07:26;12.35;;;3.83;;
60851;SDS011;48553;50.766;2.900;2023-04-25T02:10:27;14.95;;;3.97;;
60851;SDS011;48553;50.766;2.900;2023-04-25T02:13:27;13.95;;;3.72;;
60851;SDS011;48553;50.766;2.900;2023-04-25T02:16:28;13.13;;;3.92;;
60851;SDS011;48553;50.766;2.900;2023-04-25T02:19:30;9.80;;;3.30;;
60851;SDS011;48553;50.766;2.900;2023-04-25T02:22:31;13.50;;;3.72;;
60851;SDS011;48553;50.766;2.900;2023-04-25T02:25:31;12.07;;;3.75;;
60851;SDS011;48553;50.766;2.900;2023-04-25T02:28:32;11.70;;;4.20;;
60851;SDS011;48553;50.766;2.900;2023-04-25T02:31:32;14.70;;;3.90;;
60851;SDS011;48553;50.766;2.900;2023-04-25T02:34:33;11.45;;;3.75;;
60851;SDS011;48553;50.766;2.900;2023-04-25T02:37:33;13.25;;;3.63;;
60851;SDS011;48553;50.766;2.900;2023-04-25T02:40:35;13.60;;;3.20;;
60851;SDS011;48553;50.766;2.900;2023-04-25T02:43:35;13.07;;;3.58;;
60851;SDS011;48553;50.766;2.900;2023-04-25T02:46:35;14.10;;;3.35;;
60851;SDS011;48553;50.766;2.900;2023-04-25T02:49:36;8.20;;;3.33;;
60851;SDS011;48553;50.766;2.900;2023-04-25T02:52:37;9.75;;;3.33;;
60851;SDS011;48553;50.766;2.900;2023-04-25T02:55:37;9.32;;;3.13;;
60851;SDS011;48553;50.766;2.900;2023-04-25T02:58:38;7.18;;;3.17;;
60851;SDS011;48553;50.766;2.900;2023-04-25T03:01:38;12.63;;;3.45;;
60851;SDS011;48553;50.766;2.900;2023-04-25T03:04:38;9.77;;;3.22;;
60851;SDS011;48553;50.766;2.900;2023-04-25T03:07:39;9.95;;;3.65;;
60851;SDS011;48553;50.766;2.900;2023-04-25T03:10:40;8.43;;;3.60;;
60851;SDS011;48553;50.766;2.900;2023-04-25T03:13:41;12.43;;;3.13;;
60851;SDS011;48553;50.766;2.900;2023-04-25T03:16:41;10.63;;;3.13;;
60851;SDS011;48553;50.766;2.900;2023-04-25T03:19:42;12.73;;;3.33;;
60851;SDS011;48553;50.766;2.900;2023-04-25T03:22:42;9.60;;;3.10;;
60851;SDS011;48553;50.766;2.900;2023-04-25T03:25:43;12.45;;;3.42;;
60851;SDS011;48553;50.766;2.900;2023-04-25T03:28:43;11.38;;;3.53;;
60851;SDS011;48553;50.766;2.900;2023-04-25T03:31:44;9.10;;;3.40;;
60851;SDS011;48553;50.766;2.900;2023-04-25T03:34:44;11.40;;;3.40;;
60851;SDS011;48553;50.766;2.900;2023-04-25T03:37:45;13.95;;;3.65;;
60851;SDS011;48553;50.766;2.900;2023-04-25T03:40:45;8.45;;;3.22;;
60851;SDS011;48553;50.766;2.900;2023-04-25T03:43:46;8.95;;;3.13;;
60851;SDS011;48553;50.766;2.900;2023-04-25T03:46:46;13.43;;;3.78;;
60851;SDS011;48553;50.766;2.900;2023-04-25T03:49:46;14.43;;;3.85;;
60851;SDS011;48553;50.766;2.900;2023-04-25T03:52:47;11.25;;;3.17;;
60851;SDS011;48553;50.766;2.900;2023-04-25T03:55:47;11.13;;;3.28;;
60851;SDS011;48553;50.766;2.900;2023-04-25T03:58:48;8.13;;;3.17;;
60851;SDS011;48553;50.766;2.900;2023-04-25T04:01:48;6.78;;;3.20;;
60851;SDS011;48553;50.766;2.900;2023-04-25T04:04:48;8.13;;;3.00;;
60851;SDS011;48553;50.766;2.900;2023-04-25T04:07:49;9.85;;;3.20;;
60851;SDS011;48553;50.766;2.900;2023-04-25T04:10:50;11.05;;;3.40;;
60851;SDS011;48553;50.766;2.900;2023-04-25T04:13:50;11.20;;;3.13;;
60851;SDS011;48553;50.766;2.900;2023-04-25T04:16:51;7.03;;;2.78;;
60851;SDS011;48553;50.766;2.900;2023-04-25T04:19:51;10.82;;;3.30;;
60851;SDS011;48553;50.766;2.900;2023-04-25T04:22:51;8.90;;;3.05;;
60851;SDS011;48553;50.766;2.900;2023-04-25T04:25:52;10.20;;;3.20;;
60851;SDS011;48553;50.766;2.900;2023-04-25T04:28:53;10.30;;;3.13;;
60851;SDS011;48553;50.766;2.900;2023-04-25T04:31:54;11.65;;;3.35;;
60851;SDS011;48553;50.766;2.900;2023-04-25T04:34:55;9.63;;;3.28;;
60851;SDS011;48553;50.766;2.900;2023-04-25T04:37:55;10.43;;;3.38;;
60851;SDS011;48553;50.766;2.900;2023-04-25T04:40:56;11.05;;;3.13;;
60851;SDS011;48553;50.766;2.900;2023-04-25T04:43:57;11.50;;;3.13;;
60851;SDS011;48553;50.766;2.900;2023-04-25T04:46:57;9.43;;;3.17;;
60851;SDS011;48553;50.766;2.900;2023-04-25T04:49:58;10.65;;;3.22;;
60851;SDS011;48553;50.766;2.900;2023-04-25T04:52:58;10.02;;;3.22;;
60851;SDS011;48553;50.766;2.900;2023-04-25T04:55:59;8.07;;;3.05;;
60851;SDS011;48553;50.766;2.900;2023-04-25T04:59:00;7.88;;;2.95;;
60851;SDS011;48553;50.766;2.900;2023-04-25T05:02:01;9.98;;;3.35;;
60851;SDS011;48553;50.766;2.900;2023-04-25T05:05:02;9.18;;;3.05;;
60851;SDS011;48553;50.766;2.900;2023-04-25T05:08:02;9.70;;;2.50;;
60851;SDS011;48553;50.766;2.900;2023-04-25T05:11:03;9.73;;;3.25;;
60851;SDS011;48553;50.766;2.900;2023-04-25T05:14:03;9.57;;;2.70;;
60851;SDS011;48553;50.766;2.900;2023-04-25T05:17:04;11.88;;;3.22;;
60851;SDS011;48553;50.766;2.900;2023-04-25T05:20:08;9.70;;;2.88;;
60851;SDS011;48553;50.766;2.900;2023-04-25T05:23:09;8.38;;;3.10;;
60851;SDS011;48553;50.766;2.900;2023-04-25T05:26:09;9.32;;;3.00;;
60851;SDS011;48553;50.766;2.900;2023-04-25T05:29:13;11.65;;;3.25;;
60851;SDS011;48553;50.766;2.900;2023-04-25T05:32:14;9.45;;;3.10;;
60851;SDS011;48553;50.766;2.900;2023-04-25T05:35:14;8.13;;;3.08;;
60851;SDS011;48553;50.766;2.900;2023-04-25T05:38:15;10.13;;;3.13;;
60851;SDS011;48553;50.766;2.900;2023-04-25T05:41:15;9.65;;;3.03;;
60851;SDS011;48553;50.766;2.900;2023-04-25T05:44:16;9.75;;;3.33;;
60851;SDS011;48553;50.766;2.900;2023-04-25T05:47:16;10.23;;;3.00;;
60851;SDS011;48553;50.766;2.900;2023-04-25T05:50:17;6.95;;;2.85;;
60851;SDS011;48553;50.766;2.900;2023-04-25T05:53:18;9.18;;;2.78;;
60851;SDS011;48553;50.766;2.900;2023-04-25T05:56:19;8.75;;;2.85;;
60851;SDS011;48553;50.766;2.900;2023-04-25T05:59:19;9.95;;;3.00;;
60851;SDS011;48553;50.766;2.900;2023-04-25T06:02:20;9.20;;;2.85;;
60851;SDS011;48553;50.766;2.900;2023-04-25T06:05:21;10.15;;;3.00;;
60851;SDS011;48553;50.766;2.900;2023-04-25T06:08:21;8.43;;;2.88;;
60851;SDS011;48553;50.766;2.900;2023-04-25T06:11:22;13.18;;;3.25;;
60851;SDS011;48553;50.766;2.900;2023-04-25T06:14:22;8.57;;;3.22;;
60851;SDS011;48553;50.766;2.900;2023-04-25T06:17:23;7.38;;;3.10;;
60851;SDS011;48553;50.766;2.900;2023-04-25T06:20:23;9.80;;;3.15;;
60851;SDS011;48553;50.766;2.900;2023-04-25T06:23:24;13.70;;;3.33;;
60851;SDS011;48553;50.766;2.900;2023-04-25T06:26:25;12.15;;;3.50;;
60851;SDS011;48553;50.766;2.900;2023-04-25T06:29:25;9.52;;;3.30;;
60851;SDS011;48553;50.766;2.900;2023-04-25T06:32:26;7.25;;;2.88;;
60851;SDS011;48553;50.766;2.900;2023-04-25T06:35:28;10.63;;;3.20;;
60851;SDS011;48553;50.766;2.900;2023-04-25T06:38:28;7.75;;;3.20;;
60851;SDS011;48553;50.766;2.900;2023-04-25T06:41:29;9.35;;;3.47;;
60851;SDS011;48553;50.766;2.900;2023-04-25T06:44:29;11.00;;;3.35;;
60851;SDS011;48553;50.766;2.900;2023-04-25T06:47:30;12.23;;;3.42;;
60851;SDS011;48553;50.766;2.900;2023-04-25T06:50:31;10.57;;;3.30;;
60851;SDS011;48553;50.766;2.900;2023-04-25T06:53:31;9.85;;;2.95;;
60851;SDS011;48553;50.766;2.900;2023-04-25T06:56:31;12.55;;;3.47;;
60851;SDS011;48553;50.766;2.900;2023-04-25T06:59:32;8.73;;;2.95;;
60851;SDS011;48553;50.766;2.900;2023-04-25T07:02:32;11.43;;;3.40;;
60851;SDS011;48553;50.766;2.900;2023-04-25T07:05:33;9.30;;;2.88;;
60851;SDS011;48553;50.766;2.900;2023-04-25T07:08:33;9.23;;;2.88;;
60851;SDS011;48553;50.766;2.900;2023-04-25T07:11:34;9.63;;;3.38;;
60851;SDS011;48553;50.766;2.900;2023-04-25T07:14:34;9.35;;;3.65;;
60851;SDS011;48553;50.766;2.900;2023-04-25T07:17:35;8.57;;;3.10;;
60851;SDS011;48553;50.766;2.900;2023-04-25T07:20:35;9.10;;;2.95;;
60851;SDS011;48553;50.766;2.900;2023-04-25T07:23:36;7.28;;;2.50;;
60851;SDS011;48553;50.766;2.900;2023-04-25T07:26:37;9.73;;;2.72;;
60851;SDS011;48553;50.766;2.900;2023-04-25T07:29:37;9.18;;;2.40;;
60851;SDS011;48553;50.766;2.900;2023-04-25T07:32:38;13.15;;;3.08;;
60851;SDS011;48553;50.766;2.900;2023-04-25T07:35:39;9.68;;;2.78;;
60851;SDS011;48553;50.766;2.900;2023-04-25T07:38:39;11.73;;;2.40;;
60851;SDS011;48553;50.766;2.900;2023-04-25T07:41:40;10.05;;;2.45;;
60851;SDS011;48553;50.766;2.900;2023-04-25T07:44:40;7.45;;;2.83;;
60851;SDS011;48553;50.766;2.900;2023-04-25T07:47:42;7.18;;;2.65;;
60851;SDS011;48553;50.766;2.900;2023-04-25T07:50:42;6.35;;;2.25;;
60851;SDS011;48553;50.766;2.900;2023-04-25T07:53:43;8.38;;;2.20;;
60851;SDS011;48553;50.766;2.900;2023-04-25T07:56:43;6.32;;;2.20;;
60851;SDS011;48553;50.766;2.900;2023-04-25T07:59:44;9.18;;;2.35;;
60851;SDS011;48553;50.766;2.900;2023-04-25T08:02:44;7.68;;;2.38;;
60851;SDS011;48553;50.766;2.900;2023-04-25T08:05:45;6.05;;;2.00;;
60851;SDS011;48553;50.766;2.900;2023-04-25T08:08:45;5.93;;;1.60;;
60851;SDS011;48553;50.766;2.900;2023-04-25T08:11:46;7.65;;;1.58;;
60851;SDS011;48553;50.766;2.900;2023-04-25T08:14:47;5.93;;;1.42;;
60851;SDS011;48553;50.766;2.900;2023-04-25T08:17:47;6.30;;;1.70;;
60851;SDS011;48553;50.766;2.900;2023-04-25T08:20:47;5.18;;;1.80;;
60851;SDS011;48553;50.766;2.900;2023-04-25T08:23:48;7.30;;;1.65;;
60851;SDS011;48553;50.766;2.900;2023-04-25T08:26:48;8.75;;;1.65;;
60851;SDS011;48553;50.766;2.900;2023-04-25T08:29:49;7.90;;;1.90;;
60851;SDS011;48553;50.766;2.900;2023-04-25T08:32:50;4.85;;;1.83;;
60851;SDS011;48553;50.766;2.900;2023-04-25T08:35:51;6.43;;;1.83;;
60851;SDS011;48553;50.766;2.900;2023-04-25T08:38:51;6.43;;;1.70;;
60851;SDS011;48553;50.766;2.900;2023-04-25T08:41:52;8.40;;;1.63;;
60851;SDS011;48553;50.766;2.900;2023-04-25T08:44:53;6.78;;;1.85;;
60851;SDS011;48553;50.766;2.900;2023-04-25T08:47:54;6.07;;;1.73;;
60851;SDS011;48553;50.766;2.900;2023-04-25T08:50:57;5.80;;;1.60;;
60851;SDS011;48553;50.766;2.900;2023-04-25T08:57:10;6.93;;;1.45;;
60851;SDS011;48553;50.766;2.900;2023-04-25T09:00:12;5.15;;;1.30;;
60851;SDS011;48553;50.766;2.900;2023-04-25T09:03:13;3.40;;;1.60;;
60851;SDS011;48553;50.766;2.900;2023-04-25T09:06:14;5.68;;;1.65;;
60851;SDS011;48553;50.766;2.900;2023-04-25T09:09:16;5.30;;;1.50;;
60851;SDS011;48553;50.766;2.900;2023-04-25T09:12:18;4.60;;;1.50;;
60851;SDS011;48553;50.766;2.900;2023-04-25T09:15:19;4.18;;;1.33;;
60851;SDS011;48553;50.766;2.900;2023-04-25T09:18:26;5.35;;;1.30;;
60851;SDS011;48553;50.766;2.900;2023-04-25T09:21:27;4.28;;;1.50;;
60851;SDS011;48553;50.766;2.900;2023-04-25T09:24:31;3.47;;;1.58;;
60851;SDS011;48553;50.766;2.900;2023-04-25T09:27:32;4.03;;;1.38;;
60851;SDS011;48553;50.766;2.900;2023-04-25T09:30:33;7.55;;;1.75;;
60851;SDS011;48553;50.766;2.900;2023-04-25T09:33:35;6.53;;;1.58;;
60851;SDS011;48553;50.766;2.900;2023-04-25T09:36:36;5.15;;;1.63;;
60851;SDS011;48553;50.766;2.900;2023-04-25T09:39:37;6.72;;;1.48;;
60851;SDS011;48553;50.766;2.900;2023-04-25T09:42:41;5.80;;;1.42;;
60851;SDS011;48553;50.766;2.900;2023-04-25T09:45:41;7.18;;;1.48;;
60851;SDS011;48553;50.766;2.900;2023-04-25T09:48:49;3.72;;;1.10;;
60851;SDS011;48553;50.766;2.900;2023-04-25T09:51:57;3.40;;;1.05;;
60851;SDS011;48553;50.766;2.900;2023-04-25T09:54:58;3.05;;;0.95;;
60851;SDS011;48553;50.766;2.900;2023-04-25T09:58:00;5.95;;;1.30;;
60851;SDS011;48553;50.766;2.900;2023-04-25T10:01:08;6.65;;;1.63;;
60851;SDS011;48553;50.766;2.900;2023-04-25T10:04:10;6.32;;;1.80;;
60851;SDS011;48553;50.766;2.900;2023-04-25T10:07:11;4.32;;;1.30;;
60851;SDS011;48553;50.766;2.900;2023-04-25T10:10:12;5.93;;;1.70;;
60851;SDS011;48553;50.766;2.900;2023-04-25T10:13:13;4.43;;;1.50;;
60851;SDS011;48553;50.766;2.900;2023-04-25T10:16:14;5.38;;;1.35;;
60851;SDS011;48553;50.766;2.900;2023-04-25T10:19:16;5.78;;;1.40;;
60851;SDS011;48553;50.766;2.900;2023-04-25T10:22:18;6.28;;;1.50;;
60851;SDS011;48553;50.766;2.900;2023-04-25T10:25:29;5.22;;;1.75;;
60851;SDS011;48553;50.766;2.900;2023-04-25T10:28:29;3.60;;;1.27;;
60851;SDS011;48553;50.766;2.900;2023-04-25T10:32:02;3.65;;;1.23;;
60851;SDS011;48553;50.766;2.900;2023-04-25T10:35:16;4.95;;;1.30;;
60851;SDS011;48553;50.766;2.900;2023-04-25T10:38:18;6.22;;;1.20;;
60851;SDS011;48553;50.766;2.900;2023-04-25T10:41:21;3.58;;;1.20;;
60851;SDS011;48553;50.766;2.900;2023-04-25T10:44:22;5.10;;;1.23;;
60851;SDS011;48553;50.766;2.900;2023-04-25T10:47:34;4.35;;;1.38;;
60851;SDS011;48553;50.766;2.900;2023-04-25T10:50:39;6.75;;;1.35;;
60851;SDS011;48553;50.766;2.900;2023-04-25T10:53:39;4.50;;;1.10;;
60851;SDS011;48553;50.766;2.900;2023-04-25T10:56:41;6.07;;;1.08;;
60851;SDS011;48553;50.766;2.900;2023-04-25T10:59:44;4.93;;;1.10;;
60851;SDS011;48553;50.766;2.900;2023-04-25T11:02:48;4.05;;;1.05;;
60851;SDS011;48553;50.766;2.900;2023-04-25T11:05:52;3.92;;;1.30;;
60851;SDS011;48553;50.766;2.900;2023-04-25T11:08:53;5.22;;;1.13;;
60851;SDS011;48553;50.766;2.900;2023-04-25T11:11:56;5.20;;;1.10;;
60851;SDS011;48553;50.766;2.900;2023-04-25T11:15:02;5.57;;;1.45;;
60851;SDS011;48553;50.766;2.900;2023-04-25T11:18:06;6.43;;;1.27;;
60851;SDS011;48553;50.766;2.900;2023-04-25T11:21:06;7.05;;;1.20;;
60851;SDS011;48553;50.766;2.900;2023-04-25T11:24:07;4.43;;;1.17;;
60851;SDS011;48553;50.766;2.900;2023-04-25T11:27:07;6.00;;;1.00;;
60851;SDS011;48553;50.766;2.900;2023-04-25T11:30:12;4.13;;;1.02;;
60851;SDS011;48553;50.766;2.900;2023-04-25T11:33:15;3.53;;;0.90;;
60851;SDS011;48553;50.766;2.900;2023-04-25T11:36:16;5.82;;;1.17;;
60851;SDS011;48553;50.766;2.900;2023-04-25T11:39:17;2.35;;;1.00;;
60851;SDS011;48553;50.766;2.900;2023-04-25T11:42:18;3.22;;;0.95;;
60851;SDS011;48553;50.766;2.900;2023-04-25T11:45:20;3.00;;;0.98;;
60851;SDS011;48553;50.766;2.900;2023-04-25T11:48:20;3.42;;;0.93;;
60851;SDS011;48553;50.766;2.900;2023-04-25T11:51:21;3.72;;;1.10;;
60851;SDS011;48553;50.766;2.900;2023-04-25T11:54:21;7.40;;;1.00;;
60851;SDS011;48553;50.766;2.900;2023-04-25T11:57:22;5.10;;;1.27;;
60851;SDS011;48553;50.766;2.900;2023-04-25T12:00:23;3.72;;;1.08;;
60851;SDS011;48553;50.766;2.900;2023-04-25T12:03:24;5.38;;;1.17;;
60851;SDS011;48553;50.766;2.900;2023-04-25T12:06:31;4.45;;;1.17;;
60851;SDS011;48553;50.766;2.900;2023-04-25T12:09:32;3.80;;;1.27;;
60851;SDS011;48553;50.766;2.900;2023-04-25T12:12:33;4.45;;;1.13;;
60851;SDS011;48553;50.766;2.900;2023-04-25T12:15:35;5.13;;;1.50;;
60851;SDS011;48553;50.766;2.900;2023-04-25T12:18:35;4.28;;;1.30;;
60851;SDS011;48553;50.766;2.900;2023-04-25T12:21:36;7.40;;;1.67;;
60851;SDS011;48553;50.766;2.900;2023-04-25T12:24:36;5.22;;;1.63;;
60851;SDS011;48553;50.766;2.900;2023-04-25T12:27:36;6.45;;;1.80;;
60851;SDS011;48553;50.766;2.900;2023-04-25T12:34:01;4.70;;;1.35;;
60851;SDS011;48553;50.766;2.900;2023-04-25T12:37:02;8.65;;;1.42;;
60851;SDS011;48553;50.766;2.900;2023-04-25T12:40:02;3.47;;;1.15;;
60851;SDS011;48553;50.766;2.900;2023-04-25T12:43:04;3.78;;;1.20;;
60851;SDS011;48553;50.766;2.900;2023-04-25T12:46:04;7.28;;;1.30;;
60851;SDS011;48553;50.766;2.900;2023-04-25T12:49:05;3.60;;;1.25;;
60851;SDS011;48553;50.766;2.900;2023-04-25T12:52:07;3.45;;;1.20;;
60851;SDS011;48553;50.766;2.900;2023-04-25T12:55:08;3.70;;;1.20;;
60851;SDS011;48553;50.766;2.900;2023-04-25T12:58:08;4.47;;;1.05;;
60851;SDS011;48553;50.766;2.900;2023-04-25T13:01:09;3.05;;;1.10;;
60851;SDS011;48553;50.766;2.900;2023-04-25T13:04:09;3.67;;;1.13;;
60851;SDS011;48553;50.766;2.900;2023-04-25T13:07:10;3.17;;;1.10;;
60851;SDS011;48553;50.766;2.900;2023-04-25T13:10:10;3.97;;;1.33;;
60851;SDS011;48553;50.766;2.900;2023-04-25T13:13:11;4.78;;;1.20;;
60851;SDS011;48553;50.766;2.900;2023-04-25T13:16:11;3.47;;;1.10;;
60851;SDS011;48553;50.766;2.900;2023-04-25T13:19:14;3.88;;;1.20;;
60851;SDS011;48553;50.766;2.900;2023-04-25T13:22:14;6.28;;;1.65;;
60851;SDS011;48553;50.766;2.900;2023-04-25T13:25:16;5.22;;;1.20;;
60851;SDS011;48553;50.766;2.900;2023-04-25T13:28:17;4.65;;;1.20;;
60851;SDS011;48553;50.766;2.900;2023-04-25T13:31:17;5.22;;;1.35;;
60851;SDS011;48553;50.766;2.900;2023-04-25T13:34:17;4.20;;;1.30;;
60851;SDS011;48553;50.766;2.900;2023-04-25T13:37:18;4.60;;;1.35;;
60851;SDS011;48553;50.766;2.900;2023-04-25T13:40:18;4.30;;;1.30;;
60851;SDS011;48553;50.766;2.900;2023-04-25T13:43:22;4.32;;;1.50;;
60851;SDS011;48553;50.766;2.900;2023-04-25T13:46:22;4.68;;;1.10;;
60851;SDS011;48553;50.766;2.900;2023-04-25T13:49:23;5.15;;;1.33;;
60851;SDS011;48553;50.766;2.900;2023-04-25T13:52:23;3.90;;;1.38;;
60851;SDS011;48553;50.766;2.900;2023-04-25T13:55:24;6.10;;;1.40;;
60851;SDS011;48553;50.766;2.900;2023-04-25T13:58:24;4.90;;;1.50;;
60851;SDS011;48553;50.766;2.900;2023-04-25T14:01:25;4.30;;;1.40;;
60851;SDS011;48553;50.766;2.900;2023-04-25T14:04:27;2.97;;;1.30;;
60851;SDS011;48553;50.766;2.900;2023-04-25T14:07:27;4.35;;;1.10;;
60851;SDS011;48553;50.766;2.900;2023-04-25T14:10:28;3.97;;;1.00;;
60851;SDS011;48553;50.766;2.900;2023-04-25T14:13:28;4.65;;;1.25;;
60851;SDS011;48553;50.766;2.900;2023-04-25T14:16:29;4.13;;;1.30;;
60851;SDS011;48553;50.766;2.900;2023-04-25T14:19:30;3.13;;;1.30;;
60851;SDS011;48553;50.766;2.900;2023-04-25T14:22:30;3.28;;;1.10;;
60851;SDS011;48553;50.766;2.900;2023-04-25T14:25:31;5.28;;;1.35;;
60851;SDS011;48553;50.766;2.900;2023-04-25T14:28:31;4.13;;;1.20;;
60851;SDS011;48553;50.766;2.900;2023-04-25T14:31:32;4.05;;;1.02;;
60851;SDS011;48553;50.766;2.900;2023-04-25T14:34:33;4.95;;;1.20;;
60851;SDS011;48553;50.766;2.900;2023-04-25T14:37:33;4.38;;;1.40;;
60851;SDS011;48553;50.766;2.900;2023-04-25T14:40:34;3.78;;;1.10;;
60851;SDS011;48553;50.766;2.900;2023-04-25T14:43:35;6.30;;;1.10;;
60851;SDS011;48553;50.766;2.900;2023-04-25T14:46:36;4.82;;;1.02;;
60851;SDS011;48553;50.766;2.900;2023-04-25T14:49:37;4.30;;;1.05;;
60851;SDS011;48553;50.766;2.900;2023-04-25T14:52:37;4.07;;;1.08;;
60851;SDS011;48553;50.766;2.900;2023-04-25T14:55:38;5.15;;;0.93;;
60851;SDS011;48553;50.766;2.900;2023-04-25T14:58:39;3.08;;;1.02;;
60851;SDS011;48553;50.766;2.900;2023-04-25T15:01:40;4.68;;;1.10;;
60851;SDS011;48553;50.766;2.900;2023-04-25T15:04:41;4.40;;;1.13;;
60851;SDS011;48553;50.766;2.900;2023-04-25T15:07:41;6.57;;;1.20;;
60851;SDS011;48553;50.766;2.900;2023-04-25T15:10:42;6.05;;;1.20;;
60851;SDS011;48553;50.766;2.900;2023-04-25T15:13:42;5.07;;;1.20;;
60851;SDS011;48553;50.766;2.900;2023-04-25T15:16:43;5.07;;;1.10;;
60851;SDS011;48553;50.766;2.900;2023-04-25T15:19:43;3.50;;;1.15;;
60851;SDS011;48553;50.766;2.900;2023-04-25T15:22:43;4.07;;;1.20;;
60851;SDS011;48553;50.766;2.900;2023-04-25T15:28:50;6.50;;;1.20;;
60851;SDS011;48553;50.766;2.900;2023-04-25T15:31:50;6.22;;;1.38;;
60851;SDS011;48553;50.766;2.900;2023-04-25T15:34:51;4.95;;;1.20;;
60851;SDS011;48553;50.766;2.900;2023-04-25T15:37:52;6.40;;;1.65;;
60851;SDS011;48553;50.766;2.900;2023-04-25T15:40:52;3.95;;;1.00;;
60851;SDS011;48553;50.766;2.900;2023-04-25T15:43:53;5.07;;;1.30;;
60851;SDS011;48553;50.766;2.900;2023-04-25T15:46:53;3.67;;;1.33;;
60851;SDS011;48553;50.766;2.900;2023-04-25T15:49:54;3.03;;;1.15;;
60851;SDS011;48553;50.766;2.900;2023-04-25T15:52:54;4.40;;;1.20;;
60851;SDS011;48553;50.766;2.900;2023-04-25T15:55:55;4.18;;;1.40;;
60851;SDS011;48553;50.766;2.900;2023-04-25T15:58:55;6.18;;;1.42;;
60851;SDS011;48553;50.766;2.900;2023-04-25T16:01:55;3.80;;;0.93;;
60851;SDS011;48553;50.766;2.900;2023-04-25T16:04:56;4.90;;;1.00;;
60851;SDS011;48553;50.766;2.900;2023-04-25T16:07:56;3.88;;;0.95;;
60851;SDS011;48553;50.766;2.900;2023-04-25T16:10:57;4.45;;;1.00;;
60851;SDS011;48553;50.766;2.900;2023-04-25T16:13:58;5.28;;;1.00;;
60851;SDS011;48553;50.766;2.900;2023-04-25T16:16:58;3.10;;;0.80;;
60851;SDS011;48553;50.766;2.900;2023-04-25T16:19:58;2.90;;;0.90;;
60851;SDS011;48553;50.766;2.900;2023-04-25T16:23:00;3.45;;;0.90;;
60851;SDS011;48553;50.766;2.900;2023-04-25T16:26:01;3.97;;;1.00;;
60851;SDS011;48553;50.766;2.900;2023-04-25T16:29:02;6.13;;;0.90;;
60851;SDS011;48553;50.766;2.900;2023-04-25T16:32:03;3.38;;;1.05;;
60851;SDS011;48553;50.766;2.900;2023-04-25T16:35:04;3.38;;;1.00;;
60851;SDS011;48553;50.766;2.900;2023-04-25T16:38:05;6.57;;;1.10;;
60851;SDS011;48553;50.766;2.900;2023-04-25T16:41:06;4.15;;;1.20;;
60851;SDS011;48553;50.766;2.900;2023-04-25T16:44:06;6.68;;;1.05;;
60851;SDS011;48553;50.766;2.900;2023-04-25T16:47:08;3.67;;;0.90;;
60851;SDS011;48553;50.766;2.900;2023-04-25T16:50:08;4.75;;;0.93;;
60851;SDS011;48553;50.766;2.900;2023-04-25T16:53:09;4.03;;;0.88;;
60851;SDS011;48553;50.766;2.900;2023-04-25T16:56:09;5.07;;;1.10;;
60851;SDS011;48553;50.766;2.900;2023-04-25T16:59:10;4.28;;;0.80;;
60851;SDS011;48553;50.766;2.900;2023-04-25T17:02:11;2.58;;;0.93;;
60851;SDS011;48553;50.766;2.900;2023-04-25T17:05:12;5.75;;;1.13;;
60851;SDS011;48553;50.766;2.900;2023-04-25T17:08:12;3.80;;;1.15;;
60851;SDS011;48553;50.766;2.900;2023-04-25T17:11:13;4.60;;;1.00;;
60851;SDS011;48553;50.766;2.900;2023-04-25T17:14:13;5.00;;;1.00;;
60851;SDS011;48553;50.766;2.900;2023-04-25T17:17:14;3.58;;;1.20;;
60851;SDS011;48553;50.766;2.900;2023-04-25T17:20:15;5.13;;;1.00;;
60851;SDS011;48553;50.766;2.900;2023-04-25T17:23:16;6.95;;;1.10;;
60851;SDS011;48553;50.766;2.900;2023-04-25T17:26:18;6.65;;;1.00;;
60851;SDS011;48553;50.766;2.900;2023-04-25T17:29:18;6.10;;;1.10;;
60851;SDS011;48553;50.766;2.900;2023-04-25T17:32:20;4.72;;;0.98;;
60851;SDS011;48553;50.766;2.900;2023-04-25T17:35:21;3.72;;;0.95;;
60851;SDS011;48553;50.766;2.900;2023-04-25T17:38:22;6.78;;;1.40;;
60851;SDS011;48553;50.766;2.900;2023-04-25T17:41:22;3.95;;;1.00;;
60851;SDS011;48553;50.766;2.900;2023-04-25T17:44:23;2.53;;;1.13;;
60851;SDS011;48553;50.766;2.900;2023-04-25T17:47:23;4.85;;;1.30;;
60851;SDS011;48553;50.766;2.900;2023-04-25T17:50:24;5.25;;;1.30;;
60851;SDS011;48553;50.766;2.900;2023-04-25T17:53:24;4.03;;;1.33;;
60851;SDS011;48553;50.766;2.900;2023-04-25T17:56:24;4.30;;;1.10;;
60851;SDS011;48553;50.766;2.900;2023-04-25T17:59:25;5.38;;;1.40;;
60851;SDS011;48553;50.766;2.900;2023-04-25T18:02:27;5.22;;;1.10;;
60851;SDS011;48553;50.766;2.900;2023-04-25T18:05:27;3.38;;;1.30;;
60851;SDS011;48553;50.766;2.900;2023-04-25T18:08:27;4.97;;;1.20;;
60851;SDS011;48553;50.766;2.900;2023-04-25T18:11:28;3.78;;;1.20;;
60851;SDS011;48553;50.766;2.900;2023-04-25T18:14:28;5.50;;;1.30;;